createdAt,value
2022-11-03T00:00:37.969Z,9.53
2022-11-03T00:05:58.980Z,10.17
2022-11-03T00:11:12.596Z,10.33
2022-11-03T00:16:15.142Z,9.57
2022-11-03T00:21:17.783Z,11.23
2022-11-03T00:26:22.719Z,12.23
2022-11-03T00:31:28.074Z,11.30
2022-11-03T00:36:33.050Z,10.03
2022-11-03T00:41:36.698Z,10.50
2022-11-03T00:46:39.316Z,10.43
2022-11-03T00:51:41.764Z,10.23
2022-11-03T00:56:44.509Z,9.53
2022-11-03T01:01:47.956Z,9.40
2022-11-03T01:06:52.488Z,9.23
2022-11-03T01:12:06.049Z,8.07
2022-11-03T01:17:11.975Z,11.03
2022-11-03T01:22:15.562Z,8.90
2022-11-03T01:27:20.084Z,8.63
2022-11-03T01:32:22.587Z,9.13
2022-11-03T01:37:26.364Z,8.00
2022-11-03T01:42:29.208Z,8.57
2022-11-03T01:47:35.267Z,8.33
2022-11-03T01:52:43.089Z,11.23
2022-11-03T01:58:06.239Z,15.57
2022-11-03T02:03:09.630Z,11.20
2022-11-03T02:08:24.747Z,8.43
2022-11-03T02:13:28.143Z,10.03
2022-11-03T02:18:33.678Z,11.70
2022-11-03T02:23:48.887Z,13.07
2022-11-03T02:33:53.655Z,8.40
2022-11-03T02:39:05.275Z,8.00
2022-11-03T02:44:14.372Z,18.57
2022-11-03T02:49:16.942Z,19.17
2022-11-03T02:54:26.091Z,10.73
2022-11-03T02:59:32.182Z,9.90
2022-11-03T03:04:40.316Z,9.63
2022-11-03T03:09:56.830Z,8.60
2022-11-03T03:15:01.061Z,16.70
2022-11-03T03:20:21.232Z,13.50
2022-11-03T03:25:34.666Z,9.10
2022-11-03T03:30:39.192Z,9.70
2022-11-03T03:35:44.699Z,10.67
2022-11-03T03:40:51.734Z,11.13
2022-11-03T03:45:58.460Z,10.20
2022-11-03T03:51:02.651Z,13.83
2022-11-03T03:56:05.977Z,13.83
2022-11-03T04:01:12.543Z,13.87
2022-11-03T04:06:15.168Z,12.40
2022-11-03T04:11:36.259Z,11.03
2022-11-03T04:16:57.270Z,10.57
2022-11-03T04:22:17.735Z,10.47
2022-11-03T04:27:33.534Z,10.13
2022-11-03T04:32:37.146Z,14.40
2022-11-03T04:37:43.583Z,20.73
2022-11-03T04:42:50.074Z,16.37
2022-11-03T04:47:54.404Z,16.60
2022-11-03T04:52:58.939Z,21.53
2022-11-03T04:58:10.772Z,12.67
2022-11-03T05:03:17.628Z,11.63
2022-11-03T05:08:21.086Z,11.37
2022-11-03T05:13:25.575Z,13.93
2022-11-03T05:18:34.478Z,14.13
2022-11-03T05:30:54.099Z,10.13
2022-11-03T06:13:48.282Z,18.53
2022-11-03T06:18:51.250Z,19.03
2022-11-03T06:23:55.057Z,18.10
2022-11-03T06:28:57.484Z,18.80
2022-11-03T06:34:00.491Z,16.97
2022-11-03T06:39:09.118Z,16.20
2022-11-03T06:44:23.788Z,13.97
2022-11-03T06:49:34.802Z,13.97
2022-11-03T06:54:37.997Z,11.70
2022-11-03T06:59:40.708Z,12.47
2022-11-03T07:04:43.042Z,11.27
2022-11-03T07:09:45.556Z,9.67
2022-11-03T07:14:47.993Z,11.67
2022-11-03T07:19:50.488Z,20.80
2022-11-03T07:24:56.721Z,30.53
2022-11-03T07:30:11.430Z,18.37
2022-11-03T07:35:53.301Z,12.23
2022-11-03T07:40:57.854Z,10.27
2022-11-03T07:46:02.823Z,12.20
2022-11-03T07:51:41.757Z,22.77
2022-11-03T07:56:52.037Z,13.30
2022-11-03T08:01:56.930Z,11.60
2022-11-03T08:07:20.870Z,11.30
2022-11-03T08:12:29.287Z,12.47
2022-11-03T08:17:34.196Z,11.57
2022-11-03T08:22:59.134Z,12.70
2022-11-03T08:28:14.139Z,11.40
2022-11-03T08:33:21.075Z,11.10
2022-11-03T08:38:28.412Z,12.40
2022-11-03T08:43:40.566Z,12.90
2022-11-03T08:48:47.549Z,13.57
2022-11-03T08:53:55.262Z,20.27
2022-11-03T08:58:57.990Z,21.80
2022-11-03T09:04:04.389Z,18.53
2022-11-03T09:14:47.653Z,16.53
2022-11-03T09:19:53.686Z,12.93
2022-11-03T09:25:06.443Z,12.67
2022-11-03T09:30:21.326Z,11.67
2022-11-03T09:35:26.207Z,11.17
2022-11-03T09:40:28.842Z,12.63
2022-11-03T09:45:45.689Z,12.20
2022-11-03T09:50:59.493Z,10.17
2022-11-03T09:56:02.143Z,10.20
2022-11-03T10:01:19.833Z,15.93
2022-11-03T10:06:33.616Z,9.23
2022-11-03T10:11:41.565Z,8.03
2022-11-03T10:17:05.188Z,8.80
2022-11-03T10:22:14.113Z,10.00
2022-11-03T10:27:25.476Z,12.17
2022-11-03T10:32:33.599Z,12.20
2022-11-03T10:37:38.984Z,7.83
2022-11-03T10:42:41.257Z,7.13
2022-11-03T10:47:44.424Z,9.00
2022-11-03T10:52:47.153Z,11.20
2022-11-03T10:57:53.147Z,6.80
2022-11-03T11:03:00.182Z,7.80
2022-11-03T11:08:02.853Z,10.00
2022-11-03T11:13:23.236Z,9.27
2022-11-03T11:18:31.309Z,6.20
2022-11-03T11:23:33.553Z,8.67
2022-11-03T11:28:39.323Z,8.23
2022-11-03T11:33:41.892Z,5.87
2022-11-03T11:38:52.213Z,4.87
2022-11-03T11:43:54.511Z,7.17
2022-11-03T11:48:56.775Z,9.00
2022-11-03T11:54:17.095Z,3.50
2022-11-03T11:59:25.598Z,3.60
2022-11-03T12:04:31.628Z,4.53
2022-11-03T12:09:34.409Z,3.70
2022-11-03T12:14:38.455Z,25.90
2022-11-03T12:19:44.423Z,4.10
2022-11-03T12:24:53.851Z,3.13
2022-11-03T12:30:01.353Z,4.37
2022-11-03T12:35:04.639Z,3.00
2022-11-03T12:40:07.902Z,2.83
2022-11-03T12:45:11.076Z,3.37
2022-11-03T12:50:13.618Z,2.20
2022-11-03T12:55:16.079Z,4.00
2022-11-03T13:00:19.206Z,2.77
2022-11-03T13:05:21.769Z,2.80
2022-11-03T13:10:24.274Z,2.53
2022-11-03T13:15:26.794Z,2.70
2022-11-03T13:20:32.153Z,3.33
2022-11-03T13:25:34.906Z,2.33
2022-11-03T13:30:37.381Z,2.20
2022-11-03T13:35:39.762Z,4.23
2022-11-03T13:40:56.161Z,3.30
2022-11-03T13:46:02.555Z,3.47
2022-11-03T13:51:05.375Z,3.40
2022-11-03T13:56:11.460Z,3.20
2022-11-03T14:01:18.075Z,3.30
2022-11-03T14:06:20.521Z,3.70
2022-11-03T14:11:41.531Z,3.27
2022-11-03T14:16:43.956Z,3.07
2022-11-03T14:21:46.445Z,5.27
2022-11-03T14:26:48.788Z,6.07
2022-11-03T14:31:51.093Z,5.60
2022-11-03T14:36:53.585Z,6.10
2022-11-03T14:42:04.979Z,6.47
2022-11-03T14:47:12.274Z,6.10
2022-11-03T14:52:16.121Z,8.67
2022-11-03T14:57:18.398Z,12.93
2022-11-03T15:02:21.000Z,5.70
2022-11-03T15:07:23.320Z,7.17
2022-11-03T15:12:25.783Z,6.20
2022-11-03T15:17:28.043Z,5.93
2022-11-03T15:27:52.976Z,14.77
2022-11-03T15:32:56.620Z,8.47
2022-11-03T15:37:59.100Z,13.00
2022-11-03T15:43:03.076Z,18.17
2022-11-03T15:48:05.812Z,25.20
2022-11-03T15:53:08.154Z,27.43
2022-11-03T15:58:10.843Z,28.50
2022-11-03T16:03:13.847Z,25.53
2022-11-03T16:08:16.287Z,23.70
2022-11-03T16:13:18.658Z,19.03
2022-11-03T16:18:21.057Z,20.87
2022-11-03T16:23:23.400Z,21.80
2022-11-03T16:28:25.924Z,19.67
2022-11-03T16:33:28.228Z,18.50
2022-11-03T16:38:30.757Z,33.20
2022-11-03T16:43:33.127Z,32.00
2022-11-03T16:48:35.628Z,32.77
2022-11-03T16:53:38.055Z,27.57
2022-11-03T16:58:40.522Z,23.47
2022-11-03T17:03:43.206Z,18.13
2022-11-03T17:08:53.638Z,16.70
2022-11-03T17:13:56.272Z,18.03
2022-11-03T17:18:58.643Z,14.00
2022-11-03T17:24:01.335Z,13.87
2022-11-03T17:29:04.183Z,14.70
2022-11-03T17:34:06.607Z,9.23
2022-11-03T17:39:10.592Z,8.67
2022-11-03T17:44:13.547Z,9.13
2022-11-03T17:49:15.923Z,12.60
2022-11-03T17:54:18.511Z,14.80
2022-11-03T17:59:21.698Z,12.70
2022-11-03T18:04:24.505Z,10.80
2022-11-03T18:09:26.860Z,10.80
2022-11-03T18:14:29.598Z,22.37
2022-11-03T18:19:32.040Z,10.80
2022-11-03T18:24:34.585Z,14.83
2022-11-03T18:29:37.049Z,13.57
2022-11-03T18:34:39.637Z,15.10
2022-11-03T18:39:42.032Z,18.63
2022-11-03T18:44:44.615Z,12.23
2022-11-03T18:49:47.984Z,10.80
2022-11-03T18:54:50.758Z,9.73
2022-11-03T18:59:53.242Z,8.63
2022-11-03T19:04:55.830Z,10.10
2022-11-03T19:09:59.361Z,8.67
2022-11-03T19:15:01.903Z,9.87
2022-11-03T19:20:13.022Z,9.87
2022-11-03T19:25:15.745Z,10.83
2022-11-03T19:30:20.963Z,8.60
2022-11-03T19:35:32.087Z,14.17
2022-11-03T19:40:34.426Z,9.47
2022-11-03T19:45:38.853Z,12.17
2022-11-03T19:50:41.552Z,10.20
2022-11-03T19:55:43.938Z,11.00
2022-11-03T20:00:47.359Z,12.13
2022-11-03T20:05:54.144Z,12.47
2022-11-03T20:10:56.749Z,12.87
2022-11-03T20:16:01.297Z,11.23
2022-11-03T20:21:04.417Z,10.90
2022-11-03T20:26:13.182Z,15.47
2022-11-03T20:31:16.857Z,12.10
2022-11-03T20:36:20.435Z,12.47
2022-11-03T20:41:22.882Z,9.37
2022-11-03T20:46:26.500Z,11.57
2022-11-03T20:51:33.843Z,10.63
2022-11-03T20:56:36.372Z,10.57
2022-11-03T21:01:39.934Z,18.57
2022-11-03T21:06:43.655Z,14.67
2022-11-03T21:11:47.707Z,19.53
2022-11-03T21:17:08.797Z,16.03
2022-11-03T21:27:42.153Z,9.00
2022-11-03T21:32:44.935Z,10.23
2022-11-03T21:37:47.708Z,10.50
2022-11-03T21:43:08.790Z,8.90
2022-11-03T21:48:30.341Z,10.30
2022-11-03T21:53:32.742Z,9.40
2022-11-03T21:58:35.152Z,9.90
2022-11-03T22:03:38.971Z,9.50
2022-11-03T22:08:44.326Z,10.00
2022-11-03T22:13:47.084Z,9.20
2022-11-03T22:18:49.475Z,9.60
2022-11-03T22:24:14.887Z,9.60
2022-11-03T22:29:36.181Z,10.07
2022-11-03T22:34:57.315Z,9.97
2022-11-03T22:40:18.796Z,9.83
2022-11-03T22:45:39.681Z,10.77
2022-11-03T22:50:42.141Z,10.57
2022-11-03T22:55:44.546Z,10.80
2022-11-03T23:00:47.646Z,10.60
2022-11-03T23:05:50.154Z,10.87
2022-11-03T23:10:52.973Z,10.20
2022-11-03T23:15:55.550Z,10.23
2022-11-03T23:21:06.984Z,10.03
2022-11-03T23:26:09.497Z,9.40
2022-11-03T23:31:12.883Z,9.83
2022-11-03T23:36:16.772Z,9.70
2022-11-03T23:41:19.922Z,9.10
2022-11-03T23:46:43.995Z,9.43
2022-11-03T23:51:46.406Z,9.50
2022-11-03T23:57:07.474Z,9.30
